Time;durP1;ratioP1;P1;durP2;ratioP2;P2;SDS_P1;SDS_P2;PMS_P1;PMS_P2;Temp;Humidity;BMP_temperature;BMP_pressure;BME280_temperature;BME280_humidity;BME280_pressure;Samples;Min_cycle;Max_cycle;Signal;HPM_P1;HPM_P2
2022/12/27 00:01:28;;;;;;;2.83;1.58;;;;;;;-4.06;66.83;100412.97;5105857;28;20642;-55
2022/12/27 00:03:55;;;;;;;4.13;1.95;;;;;;;-4.21;66.58;100407.34;5105118;28;20130;-56
2022/12/27 00:06:23;;;;;;;3.38;2.22;;;;;;;-4.38;66.42;100404.19;5102812;28;20039;-53
2022/12/27 00:08:49;;;;;;;4.22;2.10;;;;;;;-4.65;66.82;100366.78;5098584;28;20044;-54
2022/12/27 00:11:34;;;;;;;4.43;2.20;;;;;;;-4.51;66.81;100401.16;5102579;28;20052;-51
2022/12/27 00:14:21;;;;;;;3.40;2.20;;;;;;;-4.53;67.16;100388.41;5107279;28;20035;-54
2022/12/27 00:17:06;;;;;;;3.75;1.80;;;;;;;-4.80;67.12;100377.22;5094419;28;20052;-53
2022/12/27 00:19:32;;;;;;;4.57;1.90;;;;;;;-4.66;67.44;100398.91;5092449;28;20123;-53
2022/12/27 00:21:58;;;;;;;6.05;2.08;;;;;;;-4.73;67.43;100410.50;5088572;28;20056;-57
2022/12/27 00:25:01;;;;;;;4.22;1.92;;;;;;;-4.73;67.42;100402.03;5083050;28;20063;-56
2022/12/27 00:27:46;;;;;;;2.47;1.63;;;;;;;-4.70;67.92;100400.44;5080502;28;20078;-54
2022/12/27 00:30:12;;;;;;;4.13;1.67;;;;;;;-4.73;68.18;100389.34;5094916;28;20420;-53
2022/12/27 00:32:38;;;;;;;5.10;2.20;;;;;;;-4.65;68.13;100393.00;5091263;28;20052;-58
2022/12/27 00:35:22;;;;;;;4.35;2.10;;;;;;;-4.62;68.34;100377.06;5109159;28;20044;-57
2022/12/27 00:37:48;;;;;;;2.97;1.80;;;;;;;-4.76;68.32;100352.03;5094613;28;20089;-53
2022/12/27 00:40:14;;;;;;;5.22;2.50;;;;;;;-4.62;68.01;100377.06;5102601;28;20503;-55
2022/12/27 00:42:58;;;;;;;8.07;2.60;;;;;;;-4.57;68.59;100390.78;5107057;28;20051;-57
2022/12/27 00:45:24;;;;;;;3.90;2.40;;;;;;;-4.85;68.43;100320.41;5094124;28;20051;-55
2022/12/27 00:47:50;;;;;;;5.72;2.17;;;;;;;-4.41;68.84;100378.72;5108124;28;20031;-55
2022/12/27 00:50:16;;;;;;;3.70;2.33;;;;;;;-4.35;68.12;100385.69;5092814;28;20036;-54
2022/12/27 00:53:01;;;;;;;3.63;2.30;;;;;;;-4.27;68.23;100369.03;5106200;28;20040;-55
2022/12/27 00:55:48;;;;;;;3.75;2.05;;;;;;;-4.26;68.79;100360.63;5089935;28;20135;-57
2022/12/27 00:58:13;;;;;;;4.03;2.10;;;;;;;-4.22;68.25;100357.38;5093657;28;20032;-53
2022/12/27 01:00:39;;;;;;;4.00;2.20;;;;;;;-4.19;68.25;100343.94;5107940;28;20054;-54
2022/12/27 01:03:05;;;;;;;5.80;2.83;;;;;;;-4.19;68.63;100341.41;5106287;28;20031;-57
2022/12/27 01:05:50;;;;;;;9.07;2.83;;;;;;;-4.15;68.91;100333.94;5106632;28;20052;-56
2022/12/27 01:08:16;;;;;;;4.32;2.42;;;;;;;-4.14;68.74;100333.16;5094013;28;20522;-56
2022/12/27 01:11:00;;;;;;;15.40;3.10;;;;;;;-4.09;68.63;100339.25;5108244;28;20039;-54
2022/12/27 01:13:26;;;;;;;5.00;2.88;;;;;;;-4.11;68.92;100330.69;5053510;28;20459;-54
2022/12/27 01:15:52;;;;;;;3.88;2.13;;;;;;;-4.01;68.58;100326.78;5071441;28;20291;-54
2022/12/27 01:18:18;;;;;;;2.65;1.55;;;;;;;-3.95;68.56;100321.94;5082899;28;20523;-57
2022/12/27 01:20:44;;;;;;;6.13;2.75;;;;;;;-4.04;68.70;100319.09;5110839;28;20055;-57
2022/12/27 01:23:10;;;;;;;2.63;1.70;;;;;;;-4.04;68.99;100321.63;5108070;28;20136;-56
2022/12/27 01:26:13;;;;;;;3.85;2.20;;;;;;;-4.01;69.29;100314.09;5090533;28;20499;-57
2022/12/27 01:28:57;;;;;;;3.08;2.03;;;;;;;-3.98;68.73;100309.13;5085051;28;20530;-55
2022/12/27 01:31:26;;;;;;;3.30;1.90;;;;;;;-4.03;69.29;100315.75;5090665;28;20592;-56
2022/12/27 01:33:56;;;;;;;4.07;2.30;;;;;;;-3.99;69.17;100307.41;5093442;28;20580;-54
2022/12/27 01:36:41;;;;;;;4.05;2.35;;;;;;;-4.03;69.33;100313.19;5091150;28;20028;-54
2022/12/27 01:39:10;;;;;;;6.50;2.15;;;;;;;-3.97;69.79;100290.53;5097733;28;20661;-52
2022/12/27 01:44:39;;;;;;;2.72;1.85;;;;;;;-3.91;69.64;100290.72;5080400;28;20047;-58
2022/12/27 01:47:18;;;;;;;5.05;2.30;;;;;;;-4.18;69.66;100241.56;5093555;28;20044;-56
2022/12/27 01:49:52;;;;;;;3.75;2.08;;;;;;;-3.88;69.68;100280.69;5069502;28;20542;-54
2022/12/27 01:52:38;;;;;;;3.95;1.80;;;;;;;-3.73;69.23;100273.56;5052990;28;20048;-55
2022/12/27 01:55:14;;;;;;;3.28;2.13;;;;;;;-3.78;69.39;100287.78;5102532;28;20077;-56
2022/12/27 01:58:16;;;;;;;4.18;2.35;;;;;;;-3.84;69.50;100287.59;5105257;28;20427;-52
2022/12/27 02:01:01;;;;;;;6.38;2.33;;;;;;;-3.78;69.51;100277.63;5098822;28;20075;-55
2022/12/27 02:03:31;;;;;;;4.30;2.28;;;;;;;-3.76;69.72;100280.19;5060586;28;20046;-58
2022/12/27 02:05:58;;;;;;;2.53;1.67;;;;;;;-3.78;69.37;100282.72;5111295;28;20952;-56
2022/12/27 02:09:02;;;;;;;3.50;2.45;;;;;;;-3.91;70.15;100273.81;5090257;28;20086;-53
2022/12/27 02:11:51;;;;;;;3.00;2.28;;;;;;;-3.78;69.81;100277.63;5108032;28;20044;-57
2022/12/27 02:14:48;;;;;;;5.20;2.65;;;;;;;-3.73;69.80;100273.56;5089670;28;20067;-56
2022/12/27 02:17:20;;;;;;;8.05;3.10;;;;;;;-3.74;69.56;100265.88;5089509;28;20040;-57
2022/12/27 02:19:54;;;;;;;8.70;2.97;;;;;;;-3.73;69.65;100273.56;5080424;28;20047;-56
2022/12/27 02:25:47;;;;;;;8.02;2.92;;;;;;;-3.60;69.69;100272.25;5093658;28;20051;-53
2022/12/27 02:28:38;;;;;;;5.90;3.08;;;;;;;-3.54;69.67;100260.63;5093381;28;20039;-56
2022/12/27 02:31:07;;;;;;;2.67;1.83;;;;;;;-3.55;69.11;100253.78;5106812;28;20039;-56
2022/12/27 02:33:36;;;;;;;7.15;3.38;;;;;;;-3.85;69.20;100228.31;5107439;28;20036;-54
2022/12/27 02:36:04;;;;;;;5.85;3.25;;;;;;;-3.63;69.51;100255.25;5106240;28;20051;-55
2022/12/27 02:39:07;;;;;;;5.18;3.15;;;;;;;-3.55;69.16;100252.94;5102959;28;20044;-58
2022/12/27 02:54:29;;;;;;;7.85;3.22;;;;;;;-3.78;69.20;100241.22;5070660;28;20150;-59
2022/12/27 02:57:07;;;;;;;4.10;2.83;;;;;;;-3.73;68.93;100240.53;5084993;28;20050;-57
2022/12/27 03:03:27;;;;;;;6.43;2.60;;;;;;;-3.61;69.12;100223.13;5079856;28;20426;-57
2022/12/27 03:15:53;;;;;;;3.72;2.45;;;;;;;-3.73;68.96;100211.72;5107152;28;20043;-59
2022/12/27 03:15:54;;;;;;;3.40;2.00;;;;;;;-3.64;68.80;100201.84;5103520;28;20123;-56
2022/12/27 03:18:58;;;;;;;5.95;2.92;;;;;;;-3.74;69.10;100185.47;5104782;28;20081;-54
2022/12/27 03:27:33;;;;;;;7.03;3.22;;;;;;;-3.51;68.54;100176.00;5095929;28;20048;-54
2022/12/27 03:33:12;;;;;;;5.07;3.03;;;;;;;-3.53;68.71;100163.25;5053856;28;20452;-55
2022/12/27 03:38:01;;;;;;;4.75;2.65;;;;;;;-3.48;68.30;100168.44;5076996;28;20499;-58
2022/12/27 03:38:55;;;;;;;6.45;3.15;;;;;;;-3.50;68.13;100159.91;5085050;28;20052;-52
2022/12/27 03:44:23;;;;;;;8.05;3.50;;;;;;;-3.37;68.54;100153.50;5098021;28;20071;-57
2022/12/27 03:47:26;;;;;;;6.85;2.80;;;;;;;-3.26;68.17;100149.59;5087983;28;20054;-52
2022/12/27 03:50:10;;;;;;;5.38;2.80;;;;;;;-3.28;68.21;100144.47;5098191;28;20036;-53
2022/12/27 03:53:13;;;;;;;7.10;3.20;;;;;;;-3.41;68.38;100150.03;5087817;28;20048;-58
2022/12/27 03:55:39;;;;;;;8.93;3.40;;;;;;;-3.35;68.48;100147.66;5092076;28;20048;-53
2022/12/27 03:58:24;;;;;;;5.88;2.97;;;;;;;-3.33;68.52;100140.94;5113441;27;20064;-53
2022/12/27 04:01:08;;;;;;;6.03;3.30;;;;;;;-3.30;68.03;100143.56;5104337;28;20120;-59
2022/12/27 04:03:34;;;;;;;7.30;3.17;;;;;;;-3.49;68.17;100087.94;5097252;28;20036;-55
2022/12/27 04:06:00;;;;;;;6.20;3.33;;;;;;;-3.23;68.15;100116.63;5093011;28;20527;-57
2022/12/27 04:36:19;;;;;;;6.80;2.60;;;;;;;-3.24;67.58;100076.75;5086490;28;20043;-55
2022/12/27 04:38:45;;;;;;;6.97;3.15;;;;;;;-3.25;67.58;100069.97;5112599;28;20098;-55
2022/12/27 04:55:51;;;;;;;4.68;2.67;;;;;;;-3.13;67.30;100025.38;5030902;28;20043;-57
2022/12/27 04:58:20;;;;;;;9.38;3.78;;;;;;;-3.12;67.42;100027.09;5032505;28;20105;-63
2022/12/27 05:03:46;;;;;;;6.78;3.63;;;;;;;-3.23;67.50;100038.69;5078009;28;20067;-53
2022/12/27 05:06:12;;;;;;;5.50;3.25;;;;;;;-3.19;67.69;100032.84;5102717;28;20093;-59
2022/12/27 05:14:54;;;;;;;6.57;4.03;;;;;;;-3.20;67.37;100023.53;5055662;28;20067;-51
2022/12/27 05:17:20;;;;;;;5.13;3.25;;;;;;;-3.39;67.26;99993.34;5088219;28;20491;-54
2022/12/27 05:19:45;;;;;;;7.60;3.05;;;;;;;-3.24;67.41;100028.47;5091721;28;20131;-54
2022/12/27 05:25:52;;;;;;;8.63;4.00;;;;;;;-3.05;67.33;100017.97;5095155;28;20043;-57
2022/12/27 05:28:37;;;;;;;9.65;4.05;;;;;;;-3.11;67.34;100003.41;5098795;28;20035;-56
2022/12/27 05:31:58;;;;;;;9.40;3.67;;;;;;;-3.21;67.70;100009.09;5089811;28;20040;-60
2022/12/27 05:34:24;;;;;;;6.55;3.53;;;;;;;-3.28;67.98;100003.78;5094535;28;20047;-58
2022/12/27 05:36:50;;;;;;;7.63;3.55;;;;;;;-3.28;67.57;100004.66;5090828;28;20039;-55
2022/12/27 05:39:16;;;;;;;6.75;3.58;;;;;;;-3.49;67.98;99982.06;5090852;28;20048;-57
2022/12/27 05:41:42;;;;;;;9.13;3.95;;;;;;;-3.48;68.32;100014.28;5096214;28;20128;-59
2022/12/27 05:44:08;;;;;;;8.52;3.80;;;;;;;-3.49;68.00;100016.78;5104050;28;20043;-56
2022/12/27 05:46:34;;;;;;;6.65;3.28;;;;;;;-3.53;68.38;100010.78;5109164;28;20040;-58
2022/12/27 05:49:18;;;;;;;8.13;3.80;;;;;;;-3.78;68.46;99966.88;5098824;28;20050;-54
2022/12/27 05:51:44;;;;;;;7.82;3.47;;;;;;;-3.64;68.66;100008.75;5093467;28;20040;-57
2022/12/27 05:54:28;;;;;;;6.97;3.85;;;;;;;-3.76;68.88;100000.78;5096646;28;20209;-59
2022/12/27 05:57:13;;;;;;;10.73;3.85;;;;;;;-3.78;68.92;99989.75;5092247;28;20048;-56
2022/12/27 05:59:57;;;;;;;12.07;4.10;;;;;;;-3.69;69.59;99982.38;5087268;28;20138;-58
2022/12/27 06:02:23;;;;;;;7.72;3.38;;;;;;;-3.72;68.99;99985.69;5090968;28;20043;-58
2022/12/27 06:05:08;;;;;;;9.25;3.90;;;;;;;-3.67;69.62;99988.34;5093929;28;20051;-56
2022/12/27 06:07:35;;;;;;;12.38;4.78;;;;;;;-3.60;69.12;99977.53;5078346;28;20040;-58
2022/12/27 06:10:20;;;;;;;10.18;3.85;;;;;;;-3.56;69.28;99972.56;5093173;28;20040;-59
2022/12/27 06:13:04;;;;;;;8.95;4.68;;;;;;;-3.51;69.25;99986.25;5089002;28;20471;-58
2022/12/27 06:15:30;;;;;;;9.40;4.10;;;;;;;-3.58;68.97;99983.50;5090334;28;20040;-59
2022/12/27 06:17:57;;;;;;;7.22;3.70;;;;;;;-3.65;69.54;99984.16;5071965;28;20055;-57
2022/12/27 06:20:42;;;;;;;6.38;3.63;;;;;;;-3.59;69.44;99958.91;5089759;28;20201;-57
2022/12/27 06:23:08;;;;;;;7.93;4.47;;;;;;;-3.54;69.48;99970.06;5105424;28;20036;-60
2022/12/27 06:26:11;;;;;;;10.27;5.07;;;;;;;-3.46;69.76;99966.06;5090669;28;20108;-58
2022/12/27 06:28:55;;;;;;;10.80;4.70;;;;;;;-3.36;69.56;99979.88;5070457;28;20055;-58
2022/12/27 06:31:22;;;;;;;10.77;5.10;;;;;;;-3.78;69.35;99905.91;5090674;28;20040;-58
2022/12/27 06:33:50;;;;;;;13.43;5.07;;;;;;;-3.32;69.43;99976.56;5087672;28;20036;-59
2022/12/27 06:36:18;;;;;;;8.95;4.50;;;;;;;-3.30;69.17;99980.88;5088355;28;20047;-59
2022/12/27 06:39:02;;;;;;;9.97;4.47;;;;;;;-3.38;69.51;99969.66;5090435;28;20040;-56
2022/12/27 06:42:05;;;;;;;7.90;4.40;;;;;;;-3.37;69.61;99958.66;5093690;28;20031;-58
2022/12/27 06:45:09;;;;;;;7.80;3.63;;;;;;;-3.42;69.64;99965.31;5084825;28;20071;-62
2022/12/27 06:47:53;;;;;;;13.85;5.32;;;;;;;-3.44;69.71;99944.94;5100854;28;20060;-60
2022/12/27 06:50:38;;;;;;;15.02;5.32;;;;;;;-3.45;70.21;99948.28;5096386;28;20122;-56
2022/12/27 06:53:03;;;;;;;9.93;5.07;;;;;;;-3.39;70.39;99950.13;5073795;28;20044;-54
2022/12/27 06:55:29;;;;;;;13.23;6.03;;;;;;;-3.36;70.09;99936.66;5080815;28;20054;-58
2022/12/27 06:58:32;;;;;;;12.45;5.13;;;;;;;-3.39;70.34;99934.00;5082043;28;20117;-57
2022/12/27 07:01:09;;;;;;;12.85;4.97;;;;;;;-3.29;70.58;99944.44;5084465;28;20501;-58
2022/12/27 07:03:36;;;;;;;14.43;5.20;;;;;;;-3.15;70.63;99939.72;5086335;28;20060;-56
2022/12/27 07:06:25;;;;;;;12.07;6.20;;;;;;;-3.16;70.46;99941.41;5088018;28;20089;-58
2022/12/27 07:09:29;;;;;;;8.93;4.95;;;;;;;-3.19;70.64;99935.41;5075869;28;20044;-58
2022/12/27 07:12:13;;;;;;;10.20;5.00;;;;;;;-3.11;70.71;99932.22;5079718;28;20115;-57
2022/12/27 07:15:16;;;;;;;13.18;5.72;;;;;;;-3.48;70.45;99894.00;5081203;28;20126;-56
2022/12/27 07:17:41;;;;;;;14.30;5.22;;;;;;;-3.25;71.10;99917.44;5077219;28;20119;-58
2022/12/27 07:20:08;;;;;;;10.93;5.22;;;;;;;-3.12;71.28;99920.31;5051543;28;20186;-57
2022/12/27 07:22:53;;;;;;;9.90;4.95;;;;;;;-3.18;71.00;99911.66;5081068;28;20037;-55
2022/12/27 07:25:37;;;;;;;13.35;5.70;;;;;;;-3.21;71.09;99898.91;5071172;28;20041;-59
2022/12/27 07:28:22;;;;;;;10.02;5.53;;;;;;;-3.08;71.33;99904.28;5090135;28;20058;-56
2022/12/27 07:30:47;;;;;;;12.70;5.90;;;;;;;-3.33;70.85;99866.41;5074656;28;20116;-57
2022/12/27 07:33:13;;;;;;;15.40;5.85;;;;;;;-3.28;71.22;99846.19;5081243;28;20040;-59
2022/12/27 07:35:39;;;;;;;15.02;6.22;;;;;;;-2.95;71.36;99896.97;5081770;28;20037;-54
2022/12/27 07:38:05;;;;;;;16.98;7.50;;;;;;;-2.95;70.98;99892.75;5087089;28;20052;-57
2022/12/27 07:40:49;;;;;;;17.02;6.13;;;;;;;-2.93;71.16;99896.16;5099890;28;20039;-56
2022/12/27 07:43:34;;;;;;;15.98;6.18;;;;;;;-2.88;71.53;99883.56;5083551;28;20068;-57
2022/12/27 07:46:21;;;;;;;17.00;6.80;;;;;;;-2.92;71.37;99871.56;5082508;28;20096;-58
2022/12/27 07:48:47;;;;;;;15.32;6.40;;;;;;;-2.78;71.37;99873.63;5088346;28;20044;-57
2022/12/27 07:51:13;;;;;;;10.88;5.85;;;;;;;-2.90;71.35;99839.41;5085124;28;20527;-54
2022/12/27 07:53:39;;;;;;;9.23;5.28;;;;;;;-3.09;70.99;99795.78;5087824;28;20150;-58
2022/12/27 07:56:20;;;;;;;13.77;6.05;;;;;;;-2.67;71.10;99868.78;5079331;28;20048;-57
2022/12/27 07:58:48;;;;;;;13.18;5.70;;;;;;;-2.68;70.90;99857.72;5084322;28;20048;-56
2022/12/27 08:02:02;;;;;;;11.38;5.72;;;;;;;-2.72;70.95;99858.47;5089507;28;20052;-57
2022/12/27 08:04:38;;;;;;;13.93;5.28;;;;;;;-2.90;71.01;99832.66;5081931;28;20074;-56
2022/12/27 08:07:11;;;;;;;13.05;6.05;;;;;;;-2.78;71.33;99848.19;5090251;28;20084;-56
2022/12/27 08:09:55;;;;;;;12.43;5.68;;;;;;;-2.72;71.24;99850.84;5085082;28;20044;-55
2022/12/27 08:12:58;;;;;;;9.93;5.53;;;;;;;-2.67;71.44;99843.31;5080966;28;21710;-57
2022/12/27 08:16:02;;;;;;;11.00;5.43;;;;;;;-2.57;71.38;99832.50;5084323;28;20036;-55
2022/12/27 08:18:46;;;;;;;14.50;6.15;;;;;;;-2.61;71.21;99829.03;5097537;28;20036;-56
2022/12/27 08:21:12;;;;;;;11.25;5.72;;;;;;;-2.61;71.29;99828.16;5116514;28;20131;-55
2022/12/27 08:23:57;;;;;;;13.30;5.95;;;;;;;-2.63;71.20;99815.44;5087445;28;20051;-53
2022/12/27 08:26:23;;;;;;;13.75;5.88;;;;;;;-2.63;70.92;99809.47;5084667;28;20051;-56
2022/12/27 08:29:07;;;;;;;13.63;6.05;;;;;;;-2.60;70.85;99819.69;5073129;28;20032;-58
2022/12/27 08:31:33;;;;;;;15.00;6.20;;;;;;;-2.61;70.86;99816.28;5078804;28;20047;-51
2022/12/27 08:33:59;;;;;;;10.40;5.18;;;;;;;-2.52;71.20;99814.78;5076118;28;20093;-55
2022/12/27 08:36:43;;;;;;;13.10;6.40;;;;;;;-2.61;71.26;99801.03;5091395;28;20035;-53
2022/12/27 08:39:10;;;;;;;12.80;6.70;;;;;;;-2.64;71.25;99800.97;5077290;28;20432;-56
2022/12/27 08:41:36;;;;;;;15.60;7.35;;;;;;;-2.63;71.37;99796.75;5085063;28;20044;-56
2022/12/27 08:44:21;;;;;;;15.02;6.68;;;;;;;-2.74;71.67;99798.22;5074170;28;20705;-55
2022/12/27 08:46:47;;;;;;;16.60;7.03;;;;;;;-2.91;71.58;99759.72;5089221;28;20039;-54
2022/12/27 08:49:50;;;;;;;15.52;7.28;;;;;;;-2.70;71.66;99788.13;5081592;28;20054;-55
2022/12/27 08:52:52;;;;;;;13.80;6.65;;;;;;;-2.70;71.69;99775.41;5087266;28;20128;-55
2022/12/27 08:55:37;;;;;;;17.08;6.40;;;;;;;-2.73;71.92;99769.41;5089225;28;20516;-56
2022/12/27 08:58:22;;;;;;;14.50;6.95;;;;;;;-2.68;72.20;99780.53;5080103;28;20033;-56
2022/12/27 09:00:48;;;;;;;17.90;7.93;;;;;;;-2.62;72.37;99767.94;5082415;28;20050;-56
2022/12/27 09:03:17;;;;;;;14.75;7.35;;;;;;;-2.59;72.61;99763.75;5086639;27;20044;-55
2022/12/27 09:05:44;;;;;;;15.20;7.60;;;;;;;-2.42;72.43;99759.00;5100046;28;20051;-57
2022/12/27 09:08:28;;;;;;;14.88;7.45;;;;;;;-2.34;72.40;99751.47;5088530;28;20041;-54
2022/12/27 09:11:20;;;;;;;14.60;7.10;;;;;;;-2.23;72.42;99747.44;5088212;28;20040;-54
2022/12/27 09:13:46;;;;;;;10.70;5.30;;;;;;;-2.15;72.08;99751.00;5084510;28;20524;-55
2022/12/27 09:17:08;;;;;;;16.38;8.35;;;;;;;-2.18;72.20;99746.69;5087732;28;20096;-54
2022/12/27 09:19:35;;;;;;;15.98;7.30;;;;;;;-2.31;71.90;99713.38;5084210;28;20032;-59
2022/12/27 09:22:01;;;;;;;17.65;8.32;;;;;;;-2.23;71.82;99724.53;5095442;28;20031;-59
2022/12/27 09:24:26;;;;;;;18.60;8.45;;;;;;;-2.22;72.06;99747.47;5087670;28;20044;-60
2022/12/27 09:26:52;;;;;;;16.27;7.90;;;;;;;-2.21;71.95;99740.69;5085524;28;20089;-56
2022/12/27 09:29:37;;;;;;;16.77;7.50;;;;;;;-2.19;72.21;99742.44;5087975;28;20205;-56
2022/12/27 09:32:26;;;;;;;20.60;7.65;;;;;;;-2.18;71.90;99733.97;5071940;28;20051;-57
2022/12/27 09:34:53;;;;;;;15.30;7.07;;;;;;;-2.11;71.94;99739.16;5082490;28;20040;-57
2022/12/27 09:37:18;;;;;;;15.48;7.25;;;;;;;-2.08;72.01;99727.31;5087972;28;20043;-60
2022/12/27 09:39:44;;;;;;;21.13;7.53;;;;;;;-2.10;72.02;99725.59;5068156;28;20411;-57
2022/12/27 09:42:45;;;;;;;15.23;7.18;;;;;;;-2.05;72.12;99708.72;5089539;28;20094;-57
2022/12/27 09:45:33;;;;;;;14.25;6.95;;;;;;;-2.04;72.19;99716.34;5091848;28;20127;-60
2022/12/27 09:48:19;;;;;;;13.05;6.32;;;;;;;-2.05;72.63;99721.44;5090813;28;20031;-60
2022/12/27 09:51:20;;;;;;;12.50;6.80;;;;;;;-2.08;72.05;99717.13;5095228;28;20503;-56
2022/12/27 09:53:52;;;;;;;16.60;7.38;;;;;;;-2.14;71.72;99717.88;5083701;28;20040;-58
2022/12/27 09:56:24;;;;;;;11.80;6.90;;;;;;;-2.30;72.29;99674.31;5098107;28;20581;-54
2022/12/27 09:59:38;;;;;;;17.55;6.85;;;;;;;-2.02;72.18;99699.41;5089878;28;20592;-55
2022/12/27 10:02:20;;;;;;;13.18;6.68;;;;;;;-2.01;72.49;99698.59;5090746;28;20122;-60
2022/12/27 10:04:46;;;;;;;14.80;7.50;;;;;;;-2.04;71.97;99692.59;5074295;28;20035;-61
2022/12/27 10:08:07;;;;;;;16.23;6.85;;;;;;;-2.21;72.11;99702.50;5115107;27;20514;-56
2022/12/27 10:10:51;;;;;;;15.90;7.88;;;;;;;-2.31;72.78;99691.31;5084583;28;20130;-56
2022/12/27 10:13:46;;;;;;;13.10;6.82;;;;;;;-2.36;72.71;99687.84;5108064;27;20264;-60
2022/12/27 10:16:15;;;;;;;13.52;6.78;;;;;;;-2.33;72.44;99687.00;5076126;28;20430;-58
2022/12/27 10:19:02;;;;;;;13.98;6.60;;;;;;;-2.34;73.01;99677.66;5085753;28;20140;-51
2022/12/27 10:22:05;;;;;;;12.20;6.28;;;;;;;-2.31;72.99;99678.59;5078280;28;20036;-60
2022/12/27 10:24:39;;;;;;;13.15;6.75;;;;;;;-2.21;72.98;99667.72;5081619;28;20032;-57
2022/12/27 10:27:25;;;;;;;13.95;7.70;;;;;;;-2.14;73.07;99664.41;5079294;28;20116;-57
2022/12/27 10:29:54;;;;;;;17.35;8.32;;;;;;;-2.11;73.12;99662.75;5076384;28;20055;-58
2022/12/27 10:32:23;;;;;;;16.63;7.20;;;;;;;-2.33;73.40;99608.94;5078565;28;20512;-57
2022/12/27 10:34:53;;;;;;;17.00;8.13;;;;;;;-2.16;73.25;99648.28;5080561;28;20067;-55
2022/12/27 10:37:19;;;;;;;18.10;8.25;;;;;;;-2.17;73.57;99660.97;5087973;28;20036;-57
2022/12/27 10:39:45;;;;;;;18.75;9.13;;;;;;;-2.16;73.64;99655.91;5080183;28;20100;-55
2022/12/27 10:42:23;;;;;;;17.98;8.20;;;;;;;-2.19;73.64;99645.66;5089025;28;20044;-59
2022/12/27 10:44:49;;;;;;;19.27;7.88;;;;;;;-2.16;73.73;99635.53;5080880;28;20089;-58
2022/12/27 10:47:15;;;;;;;19.73;8.80;;;;;;;-2.17;73.89;99630.41;5088113;28;20430;-56
2022/12/27 10:49:57;;;;;;;18.85;9.23;;;;;;;-2.38;73.82;99580.03;5087884;28;20123;-59
2022/12/27 10:53:01;;;;;;;18.30;7.72;;;;;;;-2.13;74.16;99621.97;5076504;28;20032;-60
2022/12/27 10:55:47;;;;;;;15.15;7.68;;;;;;;-2.50;73.97;99546.75;5089108;28;20048;-60
2022/12/27 10:58:25;;;;;;;20.27;9.48;;;;;;;-2.15;74.23;99603.28;5096642;28;20112;-58
2022/12/27 11:00:55;;;;;;;19.27;9.18;;;;;;;-2.28;74.03;99570.84;5088959;28;20600;-59
2022/12/27 11:03:39;;;;;;;16.83;8.82;;;;;;;-2.09;74.17;99597.44;5087750;28;20042;-60
2022/12/27 11:06:20;;;;;;;18.60;8.98;;;;;;;-2.13;74.38;99589.72;5098413;28;20152;-61
2022/12/27 11:08:46;;;;;;;16.65;8.07;;;;;;;-2.14;74.53;99594.81;5092471;28;20040;-60
2022/12/27 11:11:30;;;;;;;21.02;9.80;;;;;;;-2.10;74.49;99593.19;5091070;28;20147;-61
2022/12/27 11:14:27;;;;;;;20.17;9.20;;;;;;;-2.10;74.54;99578.75;5097439;28;20122;-60
2022/12/27 11:17:12;;;;;;;20.25;8.57;;;;;;;-2.28;74.61;99551.31;5093971;28;20051;-61
2022/12/27 11:19:40;;;;;;;21.63;9.40;;;;;;;-1.99;74.92;99584.81;5088204;28;20032;-56
2022/12/27 11:22:25;;;;;;;20.35;9.82;;;;;;;-2.06;74.92;99582.19;5092733;28;20048;-61
2022/12/27 11:24:59;;;;;;;17.58;7.90;;;;;;;-2.29;75.06;99541.97;5092855;28;20040;-60
2022/12/27 11:27:26;;;;;;;24.77;9.93;;;;;;;-2.08;75.21;99571.13;5101691;27;20044;-61
2022/12/27 11:29:56;;;;;;;19.58;9.02;;;;;;;-2.09;75.30;99564.34;5087030;28;20032;-61
2022/12/27 11:32:43;;;;;;;22.77;10.18;;;;;;;-2.09;75.47;99561.78;5053693;28;20051;-63
2022/12/27 11:35:18;;;;;;;20.27;8.98;;;;;;;-2.06;75.68;99557.59;5086235;28;20531;-60
2022/12/27 11:38:03;;;;;;;24.90;10.90;;;;;;;-2.11;75.53;99548.16;5100496;28;20120;-61
2022/12/27 11:40:33;;;;;;;23.85;11.15;;;;;;;-2.04;75.94;99548.25;5085872;28;20103;-60
2022/12/27 11:43:26;;;;;;;23.85;11.35;;;;;;;-2.18;76.05;99501.38;5088586;28;20040;-60
2022/12/27 11:45:53;;;;;;;24.13;10.32;;;;;;;-1.98;76.04;99545.78;5089083;28;20089;-60
2022/12/27 11:48:36;;;;;;;24.70;10.88;;;;;;;-1.97;76.57;99547.50;5121071;27;20040;-63
2022/12/27 11:51:39;;;;;;;22.98;10.48;;;;;;;-1.92;76.48;99538.25;5086901;28;20548;-62
2022/12/27 11:54:43;;;;;;;25.15;10.95;;;;;;;-1.93;76.58;99528.88;5092493;28;20059;-61
2022/12/27 11:57:38;;;;;;;23.58;10.20;;;;;;;-1.90;76.79;99539.13;5088933;28;20048;-62
2022/12/27 12:00:21;;;;;;;28.15;12.20;;;;;;;-1.95;76.67;99530.56;5086784;28;20052;-63
2022/12/27 12:03:24;;;;;;;23.00;10.40;;;;;;;-1.95;77.01;99529.72;5095734;28;20028;-62
2022/12/27 12:06:07;;;;;;;24.98;10.45;;;;;;;-1.97;77.22;99527.13;5085306;28;20036;-62
2022/12/27 12:08:58;;;;;;;24.35;10.88;;;;;;;-1.92;77.09;99525.50;5088393;28;20040;-61
2022/12/27 12:11:55;;;;;;;27.10;11.05;;;;;;;-1.89;77.43;99525.56;5088356;28;20048;-61
2022/12/27 12:14:56;;;;;;;26.83;11.15;;;;;;;-1.97;77.65;99522.03;5088022;28;20050;-63
2022/12/27 12:17:41;;;;;;;27.15;11.75;;;;;;;-1.99;77.76;99517.78;5086883;28;20051;-63
2022/12/27 12:20:34;;;;;;;32.70;14.20;;;;;;;-1.95;77.75;99522.94;5069996;28;20044;-61
2022/12/27 12:23:15;;;;;;;31.80;12.57;;;;;;;-1.85;77.96;99511.16;5090158;28;20036;-61
2022/12/27 12:26:18;;;;;;;28.58;12.00;;;;;;;-1.88;77.93;99504.31;5089491;28;20399;-62
2022/12/27 12:29:06;;;;;;;29.33;11.82;;;;;;;-1.85;78.21;99501.81;5069708;28;20044;-65
2022/12/27 12:31:45;;;;;;;28.40;11.90;;;;;;;-1.84;78.06;99490.81;5085400;28;20040;-63
2022/12/27 12:34:26;;;;;;;24.83;11.20;;;;;;;-1.89;78.42;99497.53;5079324;28;20127;-65
2022/12/27 12:37:04;;;;;;;29.52;13.25;;;;;;;-1.87;78.77;99493.28;5113372;27;20119;-63
2022/12/27 12:40:08;;;;;;;27.77;11.93;;;;;;;-1.77;78.64;99476.41;5065854;28;20504;-63
2022/12/27 12:42:46;;;;;;;26.83;11.60;;;;;;;-1.83;78.75;99459.38;5081345;28;20460;-63
2022/12/27 12:45:15;;;;;;;27.45;12.02;;;;;;;-1.75;78.88;99473.06;5106734;27;20124;-63
2022/12/27 12:47:59;;;;;;;31.15;12.65;;;;;;;-1.78;79.11;99470.47;5100695;28;20051;-62
2022/12/27 12:50:51;;;;;;;25.75;11.07;;;;;;;-1.78;79.50;99472.19;5120061;27;20073;-63
2022/12/27 12:53:47;;;;;;;29.55;12.05;;;;;;;-1.79;79.64;99466.22;5084624;28;20045;-67
2022/12/27 12:56:37;;;;;;;29.83;12.65;;;;;;;-2.03;79.58;99427.72;5081126;28;20036;-62
2022/12/27 12:59:38;;;;;;;23.30;10.43;;;;;;;-1.69;79.58;99462.09;5080136;28;20430;-62
2022/12/27 13:02:52;;;;;;;25.88;11.43;;;;;;;-1.61;79.36;99463.00;5073276;28;20128;-64
2022/12/27 13:06:03;;;;;;;24.08;10.82;;;;;;;-1.61;79.48;99459.59;5083661;28;20042;-63
2022/12/27 13:08:36;;;;;;;23.08;10.98;;;;;;;-1.63;79.63;99453.66;5025611;28;20051;-64
2022/12/27 13:11:38;;;;;;;29.67;10.95;;;;;;;-1.62;80.04;99452.81;5011379;28;20045;-63
2022/12/27 13:14:30;;;;;;;24.10;10.93;;;;;;;-1.67;79.89;99445.09;5071530;28;20497;-61
2022/12/27 13:17:27;;;;;;;22.50;9.98;;;;;;;-1.61;80.12;99437.53;5097467;28;20071;-63
2022/12/27 13:20:38;;;;;;;28.38;11.88;;;;;;;-1.61;80.26;99445.16;5095753;28;20131;-62
2022/12/27 13:23:16;;;;;;;27.95;11.73;;;;;;;-1.60;80.49;99446.03;5064147;28;20082;-63
2022/12/27 13:25:49;;;;;;;31.13;11.83;;;;;;;-1.60;80.61;99448.56;5087318;28;20040;-62
2022/12/27 13:28:35;;;;;;;24.85;11.63;;;;;;;-1.55;80.58;99437.59;5077481;28;20149;-62
2022/12/27 13:31:23;;;;;;;22.38;11.00;;;;;;;-1.56;80.84;99447.75;5113640;27;20517;-64
2022/12/27 13:34:26;;;;;;;22.80;9.35;;;;;;;-1.61;81.05;99434.97;5073669;28;20053;-61
2022/12/27 13:37:38;;;;;;;25.73;11.82;;;;;;;-1.54;81.23;99433.34;5078582;28;20125;-63
2022/12/27 13:40:53;;;;;;;31.65;13.30;;;;;;;-1.51;81.01;99434.22;5073139;28;20132;-63
2022/12/27 13:43:50;;;;;;;24.60;11.07;;;;;;;-1.46;81.01;99427.47;5087067;28;20032;-63
2022/12/27 13:47:02;;;;;;;28.67;11.63;;;;;;;-1.43;81.29;99424.13;5083526;28;20123;-62
2022/12/27 13:49:33;;;;;;;23.38;11.25;;;;;;;-1.39;81.26;99423.28;5075906;28;20051;-62
2022/12/27 13:52:14;;;;;;;31.67;12.00;;;;;;;-1.29;81.25;99427.63;5082560;28;20036;-63
2022/12/27 13:54:49;;;;;;;26.80;12.75;;;;;;;-1.31;81.67;99430.16;5082218;28;20045;-62
2022/12/27 13:57:27;;;;;;;26.58;11.90;;;;;;;-1.27;81.54;99420.88;5085770;28;20806;-61
2022/12/27 14:00:10;;;;;;;25.55;11.18;;;;;;;-1.25;81.70;99416.63;5077994;28;20767;-63
2022/12/27 14:02:54;;;;;;;23.45;10.52;;;;;;;-1.29;81.67;99418.28;5074965;28;20101;-62